sensor_id;sensor_type;location;lat;lon;timestamp;temperature;humidity
18444;DHT22;9350;53.176;8.194;2022-08-01T00:01:45;19.80;99.90
18444;DHT22;9350;53.176;8.194;2022-08-01T00:04:12;19.90;99.90
18444;DHT22;9350;53.176;8.194;2022-08-01T00:06:39;19.80;99.90
18444;DHT22;9350;53.176;8.194;2022-08-01T00:09:05;19.80;99.90
18444;DHT22;9350;53.176;8.194;2022-08-01T00:11:34;19.80;99.90
18444;DHT22;9350;53.176;8.194;2022-08-01T00:14:00;19.80;99.90
18444;DHT22;9350;53.176;8.194;2022-08-01T00:16:27;19.80;99.90
18444;DHT22;9350;53.176;8.194;2022-08-01T00:18:54;19.80;99.90
18444;DHT22;9350;53.176;8.194;2022-08-01T00:21:21;19.80;99.90
18444;DHT22;9350;53.176;8.194;2022-08-01T00:23:47;19.80;99.90
18444;DHT22;9350;53.176;8.194;2022-08-01T00:26:14;19.80;99.90
18444;DHT22;9350;53.176;8.194;2022-08-01T00:28:42;19.80;99.90
18444;DHT22;9350;53.176;8.194;2022-08-01T00:31:09;19.80;99.90
18444;DHT22;9350;53.176;8.194;2022-08-01T00:33:36;19.80;99.90
18444;DHT22;9350;53.176;8.194;2022-08-01T00:36:03;19.80;99.90
18444;DHT22;9350;53.176;8.194;2022-08-01T00:38:30;19.80;99.90
18444;DHT22;9350;53.176;8.194;2022-08-01T00:40:56;19.80;99.90
18444;DHT22;9350;53.176;8.194;2022-08-01T00:43:23;19.80;99.90
18444;DHT22;9350;53.176;8.194;2022-08-01T00:45:52;19.80;99.90
18444;DHT22;9350;53.176;8.194;2022-08-01T00:48:18;19.80;99.90
18444;DHT22;9350;53.176;8.194;2022-08-01T00:50:45;19.80;99.90
18444;DHT22;9350;53.176;8.194;2022-08-01T00:53:12;19.70;99.90
18444;DHT22;9350;53.176;8.194;2022-08-01T00:55:39;19.70;99.90
18444;DHT22;9350;53.176;8.194;2022-08-01T00:58:06;19.80;99.90
18444;DHT22;9350;53.176;8.194;2022-08-01T01:00:34;19.80;99.90
18444;DHT22;9350;53.176;8.194;2022-08-01T01:03:03;19.80;99.90
18444;DHT22;9350;53.176;8.194;2022-08-01T01:05:33;19.80;99.90
18444;DHT22;9350;53.176;8.194;2022-08-01T01:08:06;19.70;99.90
18444;DHT22;9350;53.176;8.194;2022-08-01T01:10:42;19.70;99.90
18444;DHT22;9350;53.176;8.194;2022-08-01T01:13:13;19.80;99.90
18444;DHT22;9350;53.176;8.194;2022-08-01T01:15:46;19.70;99.90
18444;DHT22;9350;53.176;8.194;2022-08-01T01:18:20;19.80;99.90
18444;DHT22;9350;53.176;8.194;2022-08-01T01:21:00;19.70;99.90
18444;DHT22;9350;53.176;8.194;2022-08-01T01:23:40;19.70;99.90
18444;DHT22;9350;53.176;8.194;2022-08-01T01:26:24;19.70;99.90
18444;DHT22;9350;53.176;8.194;2022-08-01T01:29:13;19.70;99.90
18444;DHT22;9350;53.176;8.194;2022-08-01T01:31:46;19.70;99.90
18444;DHT22;9350;53.176;8.194;2022-08-01T01:34:15;19.70;99.90
18444;DHT22;9350;53.176;8.194;2022-08-01T01:36:44;19.70;99.90
18444;DHT22;9350;53.176;8.194;2022-08-01T01:39:13;19.70;99.90
18444;DHT22;9350;53.176;8.194;2022-08-01T01:41:41;19.70;99.90
18444;DHT22;9350;53.176;8.194;2022-08-01T01:44:10;19.60;99.90
18444;DHT22;9350;53.176;8.194;2022-08-01T01:46:40;19.60;99.90
18444;DHT22;9350;53.176;8.194;2022-08-01T01:49:08;19.60;99.90
18444;DHT22;9350;53.176;8.194;2022-08-01T01:51:37;19.60;99.90
18444;DHT22;9350;53.176;8.194;2022-08-01T01:54:05;19.50;99.90
18444;DHT22;9350;53.176;8.194;2022-08-01T01:56:33;19.50;99.90
18444;DHT22;9350;53.176;8.194;2022-08-01T01:59:02;19.50;99.90
18444;DHT22;9350;53.176;8.194;2022-08-01T02:01:32;19.50;99.90
18444;DHT22;9350;53.176;8.194;2022-08-01T02:04:03;19.50;99.90
18444;DHT22;9350;53.176;8.194;2022-08-01T02:06:30;19.50;99.90
18444;DHT22;9350;53.176;8.194;2022-08-01T02:09:00;19.50;99.90
18444;DHT22;9350;53.176;8.194;2022-08-01T02:11:27;19.50;99.90
18444;DHT22;9350;53.176;8.194;2022-08-01T02:13:58;19.50;99.90
18444;DHT22;9350;53.176;8.194;2022-08-01T02:16:27;19.50;99.90
18444;DHT22;9350;53.176;8.194;2022-08-01T02:18:55;19.40;99.90
18444;DHT22;9350;53.176;8.194;2022-08-01T02:21:28;19.40;99.90
18444;DHT22;9350;53.176;8.194;2022-08-01T02:24:03;19.40;99.90
18444;DHT22;9350;53.176;8.194;2022-08-01T02:26:34;19.40;99.90
18444;DHT22;9350;53.176;8.194;2022-08-01T02:29:06;19.40;99.90
18444;DHT22;9350;53.176;8.194;2022-08-01T02:31:36;19.40;99.90
18444;DHT22;9350;53.176;8.194;2022-08-01T02:34:07;19.40;99.90
18444;DHT22;9350;53.176;8.194;2022-08-01T02:36:38;19.30;99.90
18444;DHT22;9350;53.176;8.194;2022-08-01T02:39:08;19.20;99.90
18444;DHT22;9350;53.176;8.194;2022-08-01T02:41:39;19.20;99.90
18444;DHT22;9350;53.176;8.194;2022-08-01T02:44:10;19.20;99.90
18444;DHT22;9350;53.176;8.194;2022-08-01T02:46:41;19.20;99.90
18444;DHT22;9350;53.176;8.194;2022-08-01T02:49:11;19.20;99.90
18444;DHT22;9350;53.176;8.194;2022-08-01T02:51:41;19.20;99.90
18444;DHT22;9350;53.176;8.194;2022-08-01T02:54:09;19.20;99.90
18444;DHT22;9350;53.176;8.194;2022-08-01T02:56:38;19.20;99.90
18444;DHT22;9350;53.176;8.194;2022-08-01T02:59:10;19.20;99.90
18444;DHT22;9350;53.176;8.194;2022-08-01T03:01:39;19.20;99.90
18444;DHT22;9350;53.176;8.194;2022-08-01T03:04:07;19.20;99.90
18444;DHT22;9350;53.176;8.194;2022-08-01T03:06:35;19.20;99.90
18444;DHT22;9350;53.176;8.194;2022-08-01T03:09:04;19.20;99.90
18444;DHT22;9350;53.176;8.194;2022-08-01T03:11:35;19.20;99.90
18444;DHT22;9350;53.176;8.194;2022-08-01T03:14:07;19.10;99.90
18444;DHT22;9350;53.176;8.194;2022-08-01T03:16:36;19.10;99.90
18444;DHT22;9350;53.176;8.194;2022-08-01T03:19:04;19.10;99.90
18444;DHT22;9350;53.176;8.194;2022-08-01T03:21:34;19.10;99.90
18444;DHT22;9350;53.176;8.194;2022-08-01T03:24:05;19.10;99.90
18444;DHT22;9350;53.176;8.194;2022-08-01T03:26:34;19.10;99.90
18444;DHT22;9350;53.176;8.194;2022-08-01T03:29:05;19.10;99.90
18444;DHT22;9350;53.176;8.194;2022-08-01T03:31:34;19.10;99.90
18444;DHT22;9350;53.176;8.194;2022-08-01T03:34:02;19.00;99.90
18444;DHT22;9350;53.176;8.194;2022-08-01T03:36:30;19.00;99.90
18444;DHT22;9350;53.176;8.194;2022-08-01T03:39:01;19.10;99.90
18444;DHT22;9350;53.176;8.194;2022-08-01T03:41:34;19.00;99.90
18444;DHT22;9350;53.176;8.194;2022-08-01T03:44:07;19.00;99.90
18444;DHT22;9350;53.176;8.194;2022-08-01T03:46:46;19.10;99.90
18444;DHT22;9350;53.176;8.194;2022-08-01T03:49:17;19.10;99.90
18444;DHT22;9350;53.176;8.194;2022-08-01T03:51:47;19.10;99.90
18444;DHT22;9350;53.176;8.194;2022-08-01T03:54:20;19.00;99.90
18444;DHT22;9350;53.176;8.194;2022-08-01T03:56:49;19.00;99.90
18444;DHT22;9350;53.176;8.194;2022-08-01T03:59:17;19.00;99.90
18444;DHT22;9350;53.176;8.194;2022-08-01T04:01:45;19.00;99.90
18444;DHT22;9350;53.176;8.194;2022-08-01T04:04:13;18.90;99.90
18444;DHT22;9350;53.176;8.194;2022-08-01T04:06:40;18.90;99.90
18444;DHT22;9350;53.176;8.194;2022-08-01T04:09:09;18.90;99.90
18444;DHT22;9350;53.176;8.194;2022-08-01T04:11:38;18.80;99.90
18444;DHT22;9350;53.176;8.194;2022-08-01T04:14:06;18.90;99.90
18444;DHT22;9350;53.176;8.194;2022-08-01T04:16:33;18.90;99.90
18444;DHT22;9350;53.176;8.194;2022-08-01T04:19:00;18.90;99.90
18444;DHT22;9350;53.176;8.194;2022-08-01T04:21:28;18.90;99.90
18444;DHT22;9350;53.176;8.194;2022-08-01T04:23:59;18.80;99.90
18444;DHT22;9350;53.176;8.194;2022-08-01T04:26:27;18.70;99.90
18444;DHT22;9350;53.176;8.194;2022-08-01T04:28:55;18.70;99.90
18444;DHT22;9350;53.176;8.194;2022-08-01T04:31:24;18.70;99.90
18444;DHT22;9350;53.176;8.194;2022-08-01T04:33:54;18.70;99.90
18444;DHT22;9350;53.176;8.194;2022-08-01T04:36:23;18.70;99.90
18444;DHT22;9350;53.176;8.194;2022-08-01T04:38:54;18.70;99.90
18444;DHT22;9350;53.176;8.194;2022-08-01T04:41:22;18.70;99.90
18444;DHT22;9350;53.176;8.194;2022-08-01T04:43:50;18.60;99.90
18444;DHT22;9350;53.176;8.194;2022-08-01T04:46:18;18.60;99.90
18444;DHT22;9350;53.176;8.194;2022-08-01T04:48:47;18.70;99.90
18444;DHT22;9350;53.176;8.194;2022-08-01T04:51:15;18.80;99.90
18444;DHT22;9350;53.176;8.194;2022-08-01T04:53:42;18.70;99.90
18444;DHT22;9350;53.176;8.194;2022-08-01T04:56:11;18.80;99.90
18444;DHT22;9350;53.176;8.194;2022-08-01T04:58:39;18.80;99.90
18444;DHT22;9350;53.176;8.194;2022-08-01T05:01:06;18.80;99.90
18444;DHT22;9350;53.176;8.194;2022-08-01T05:03:33;18.80;99.90
18444;DHT22;9350;53.176;8.194;2022-08-01T05:06:01;18.60;99.90
18444;DHT22;9350;53.176;8.194;2022-08-01T05:08:28;18.60;99.90
18444;DHT22;9350;53.176;8.194;2022-08-01T05:10:55;18.70;99.90
18444;DHT22;9350;53.176;8.194;2022-08-01T05:13:22;18.50;99.90
18444;DHT22;9350;53.176;8.194;2022-08-01T05:15:48;18.40;99.90
18444;DHT22;9350;53.176;8.194;2022-08-01T05:18:15;18.60;99.90
18444;DHT22;9350;53.176;8.194;2022-08-01T05:20:42;18.40;99.90
18444;DHT22;9350;53.176;8.194;2022-08-01T05:23:10;18.30;99.90
18444;DHT22;9350;53.176;8.194;2022-08-01T05:25:37;18.30;99.90
18444;DHT22;9350;53.176;8.194;2022-08-01T05:28:04;18.20;99.90
18444;DHT22;9350;53.176;8.194;2022-08-01T05:30:31;18.20;99.90
18444;DHT22;9350;53.176;8.194;2022-08-01T05:32:58;18.20;99.90
18444;DHT22;9350;53.176;8.194;2022-08-01T05:35:25;18.30;99.90
18444;DHT22;9350;53.176;8.194;2022-08-01T05:37:51;18.10;99.90
18444;DHT22;9350;53.176;8.194;2022-08-01T05:40:20;18.20;99.90
18444;DHT22;9350;53.176;8.194;2022-08-01T05:42:46;18.30;99.90
18444;DHT22;9350;53.176;8.194;2022-08-01T05:45:13;18.30;99.90
18444;DHT22;9350;53.176;8.194;2022-08-01T05:47:40;18.30;99.90
18444;DHT22;9350;53.176;8.194;2022-08-01T05:50:08;18.30;99.90
18444;DHT22;9350;53.176;8.194;2022-08-01T05:52:34;18.30;99.90
18444;DHT22;9350;53.176;8.194;2022-08-01T05:55:02;18.30;99.90
18444;DHT22;9350;53.176;8.194;2022-08-01T05:57:30;18.20;99.90
18444;DHT22;9350;53.176;8.194;2022-08-01T05:59:57;18.20;99.90
18444;DHT22;9350;53.176;8.194;2022-08-01T06:02:23;18.10;99.90
18444;DHT22;9350;53.176;8.194;2022-08-01T06:04:50;18.20;99.90
18444;DHT22;9350;53.176;8.194;2022-08-01T06:07:17;18.20;99.90
18444;DHT22;9350;53.176;8.194;2022-08-01T06:09:44;18.20;99.90
18444;DHT22;9350;53.176;8.194;2022-08-01T06:12:11;18.30;99.90
18444;DHT22;9350;53.176;8.194;2022-08-01T06:14:39;18.30;99.90
18444;DHT22;9350;53.176;8.194;2022-08-01T06:17:05;18.30;99.90
18444;DHT22;9350;53.176;8.194;2022-08-01T06:19:32;18.40;99.90
18444;DHT22;9350;53.176;8.194;2022-08-01T06:21:59;18.40;99.90
18444;DHT22;9350;53.176;8.194;2022-08-01T06:24:26;18.40;99.90
18444;DHT22;9350;53.176;8.194;2022-08-01T06:26:53;18.40;99.90
18444;DHT22;9350;53.176;8.194;2022-08-01T06:29:19;18.40;99.90
18444;DHT22;9350;53.176;8.194;2022-08-01T06:31:47;18.50;99.90
18444;DHT22;9350;53.176;8.194;2022-08-01T06:34:15;18.50;99.90
18444;DHT22;9350;53.176;8.194;2022-08-01T06:36:42;18.50;99.90
18444;DHT22;9350;53.176;8.194;2022-08-01T06:39:08;18.50;99.90
18444;DHT22;9350;53.176;8.194;2022-08-01T06:41:35;18.50;99.90
18444;DHT22;9350;53.176;8.194;2022-08-01T06:44:02;18.50;99.90
18444;DHT22;9350;53.176;8.194;2022-08-01T06:46:29;18.50;99.90
18444;DHT22;9350;53.176;8.194;2022-08-01T06:48:58;18.50;99.90
18444;DHT22;9350;53.176;8.194;2022-08-01T06:51:25;18.40;99.90
18444;DHT22;9350;53.176;8.194;2022-08-01T06:53:51;18.40;99.90
18444;DHT22;9350;53.176;8.194;2022-08-01T06:56:19;18.40;99.90
18444;DHT22;9350;53.176;8.194;2022-08-01T06:58:46;18.30;99.90
18444;DHT22;9350;53.176;8.194;2022-08-01T07:01:12;18.30;99.90
18444;DHT22;9350;53.176;8.194;2022-08-01T07:03:39;18.20;99.90
18444;DHT22;9350;53.176;8.194;2022-08-01T07:06:08;18.30;99.90
18444;DHT22;9350;53.176;8.194;2022-08-01T07:08:35;18.40;99.90
18444;DHT22;9350;53.176;8.194;2022-08-01T07:11:01;18.40;99.90
18444;DHT22;9350;53.176;8.194;2022-08-01T07:13:28;18.40;99.90
18444;DHT22;9350;53.176;8.194;2022-08-01T07:15:57;18.50;99.90
18444;DHT22;9350;53.176;8.194;2022-08-01T07:18:23;18.60;99.90
18444;DHT22;9350;53.176;8.194;2022-08-01T07:20:50;18.60;99.90
18444;DHT22;9350;53.176;8.194;2022-08-01T07:23:18;18.70;99.90
18444;DHT22;9350;53.176;8.194;2022-08-01T07:25:46;18.80;99.90
18444;DHT22;9350;53.176;8.194;2022-08-01T07:28:14;18.70;99.90
18444;DHT22;9350;53.176;8.194;2022-08-01T07:30:40;18.70;99.90
18444;DHT22;9350;53.176;8.194;2022-08-01T07:33:09;18.70;99.90
18444;DHT22;9350;53.176;8.194;2022-08-01T07:35:36;18.80;99.90
18444;DHT22;9350;53.176;8.194;2022-08-01T07:38:03;18.70;99.90
18444;DHT22;9350;53.176;8.194;2022-08-01T07:40:32;18.70;99.90
18444;DHT22;9350;53.176;8.194;2022-08-01T07:42:59;18.80;99.90
18444;DHT22;9350;53.176;8.194;2022-08-01T07:45:25;18.70;99.90
18444;DHT22;9350;53.176;8.194;2022-08-01T07:47:53;18.80;99.90
18444;DHT22;9350;53.176;8.194;2022-08-01T07:50:20;18.80;99.90
18444;DHT22;9350;53.176;8.194;2022-08-01T07:52:47;18.80;99.90
18444;DHT22;9350;53.176;8.194;2022-08-01T07:55:14;18.70;99.90
18444;DHT22;9350;53.176;8.194;2022-08-01T07:57:42;18.80;99.90
18444;DHT22;9350;53.176;8.194;2022-08-01T08:00:09;18.80;99.90
18444;DHT22;9350;53.176;8.194;2022-08-01T08:02:36;19.00;99.90
18444;DHT22;9350;53.176;8.194;2022-08-01T08:05:03;19.00;99.90
18444;DHT22;9350;53.176;8.194;2022-08-01T08:07:31;19.00;99.90
18444;DHT22;9350;53.176;8.194;2022-08-01T08:09:58;19.10;99.90
18444;DHT22;9350;53.176;8.194;2022-08-01T08:12:25;19.00;99.90
18444;DHT22;9350;53.176;8.194;2022-08-01T08:14:53;19.10;99.90
18444;DHT22;9350;53.176;8.194;2022-08-01T08:17:20;19.20;99.90
18444;DHT22;9350;53.176;8.194;2022-08-01T08:19:47;19.20;99.90
18444;DHT22;9350;53.176;8.194;2022-08-01T08:22:14;19.10;99.90
18444;DHT22;9350;53.176;8.194;2022-08-01T08:24:40;19.20;99.90
18444;DHT22;9350;53.176;8.194;2022-08-01T08:27:07;19.20;99.90
18444;DHT22;9350;53.176;8.194;2022-08-01T08:29:34;19.10;99.90
18444;DHT22;9350;53.176;8.194;2022-08-01T08:32:03;19.20;99.90
18444;DHT22;9350;53.176;8.194;2022-08-01T08:34:30;19.20;99.90
18444;DHT22;9350;53.176;8.194;2022-08-01T08:36:57;19.20;99.90
18444;DHT22;9350;53.176;8.194;2022-08-01T08:39:25;19.20;99.90
18444;DHT22;9350;53.176;8.194;2022-08-01T08:41:56;19.20;99.90
18444;DHT22;9350;53.176;8.194;2022-08-01T08:44:24;19.20;99.90
18444;DHT22;9350;53.176;8.194;2022-08-01T08:46:51;19.30;99.90
18444;DHT22;9350;53.176;8.194;2022-08-01T08:49:26;19.30;99.90
18444;DHT22;9350;53.176;8.194;2022-08-01T08:51:56;19.40;99.90
18444;DHT22;9350;53.176;8.194;2022-08-01T08:54:24;19.50;99.90
18444;DHT22;9350;53.176;8.194;2022-08-01T08:56:52;19.50;99.90
18444;DHT22;9350;53.176;8.194;2022-08-01T08:59:19;19.40;99.90
18444;DHT22;9350;53.176;8.194;2022-08-01T09:01:47;19.40;99.90
18444;DHT22;9350;53.176;8.194;2022-08-01T09:04:14;19.40;99.90
18444;DHT22;9350;53.176;8.194;2022-08-01T09:06:42;19.50;99.90
18444;DHT22;9350;53.176;8.194;2022-08-01T09:09:10;19.50;99.90
18444;DHT22;9350;53.176;8.194;2022-08-01T09:14:27;19.60;99.90
18444;DHT22;9350;53.176;8.194;2022-08-01T09:14:49;19.60;99.90
18444;DHT22;9350;53.176;8.194;2022-08-01T09:17:27;19.70;99.90
18444;DHT22;9350;53.176;8.194;2022-08-01T09:22:36;19.80;99.90
18444;DHT22;9350;53.176;8.194;2022-08-01T09:25:06;19.80;99.90
18444;DHT22;9350;53.176;8.194;2022-08-01T09:27:35;19.90;99.90
18444;DHT22;9350;53.176;8.194;2022-08-01T09:30:12;19.90;99.90
18444;DHT22;9350;53.176;8.194;2022-08-01T09:32:55;19.90;99.90
18444;DHT22;9350;53.176;8.194;2022-08-01T09:35:24;19.90;99.90
18444;DHT22;9350;53.176;8.194;2022-08-01T09:38:12;19.90;99.90
18444;DHT22;9350;53.176;8.194;2022-08-01T09:40:47;19.90;99.90
18444;DHT22;9350;53.176;8.194;2022-08-01T09:43:14;20.00;99.90
18444;DHT22;9350;53.176;8.194;2022-08-01T09:45:41;20.00;99.90
18444;DHT22;9350;53.176;8.194;2022-08-01T09:48:08;20.00;99.90
18444;DHT22;9350;53.176;8.194;2022-08-01T09:50:39;20.00;99.90
18444;DHT22;9350;53.176;8.194;2022-08-01T09:53:08;20.00;99.90
18444;DHT22;9350;53.176;8.194;2022-08-01T09:55:35;20.10;99.90
18444;DHT22;9350;53.176;8.194;2022-08-01T09:58:02;20.10;99.90
18444;DHT22;9350;53.176;8.194;2022-08-01T10:00:31;20.10;99.90
18444;DHT22;9350;53.176;8.194;2022-08-01T10:02:58;20.10;99.90
18444;DHT22;9350;53.176;8.194;2022-08-01T10:05:32;20.10;99.90
18444;DHT22;9350;53.176;8.194;2022-08-01T10:08:00;20.00;99.90
18444;DHT22;9350;53.176;8.194;2022-08-01T10:10:28;20.00;99.90
18444;DHT22;9350;53.176;8.194;2022-08-01T10:12:57;20.00;99.90
18444;DHT22;9350;53.176;8.194;2022-08-01T10:15:25;19.90;99.90
18444;DHT22;9350;53.176;8.194;2022-08-01T10:17:54;19.90;99.90
18444;DHT22;9350;53.176;8.194;2022-08-01T10:20:23;20.00;99.90
18444;DHT22;9350;53.176;8.194;2022-08-01T10:22:52;20.20;99.90
18444;DHT22;9350;53.176;8.194;2022-08-01T10:25:21;20.20;99.90
18444;DHT22;9350;53.176;8.194;2022-08-01T10:27:51;20.20;99.90
18444;DHT22;9350;53.176;8.194;2022-08-01T10:30:20;20.10;99.90
18444;DHT22;9350;53.176;8.194;2022-08-01T10:32:48;20.10;99.90
18444;DHT22;9350;53.176;8.194;2022-08-01T10:35:16;20.20;99.90
18444;DHT22;9350;53.176;8.194;2022-08-01T10:37:44;20.10;99.90
18444;DHT22;9350;53.176;8.194;2022-08-01T10:40:12;20.20;99.90
18444;DHT22;9350;53.176;8.194;2022-08-01T10:42:40;20.30;99.90
18444;DHT22;9350;53.176;8.194;2022-08-01T10:45:10;20.30;99.90
18444;DHT22;9350;53.176;8.194;2022-08-01T10:47:42;20.40;99.90
18444;DHT22;9350;53.176;8.194;2022-08-01T10:50:15;20.40;99.90
18444;DHT22;9350;53.176;8.194;2022-08-01T10:53:09;20.50;99.90
18444;DHT22;9350;53.176;8.194;2022-08-01T10:55:48;20.50;99.90
18444;DHT22;9350;53.176;8.194;2022-08-01T10:58:20;20.50;99.90
18444;DHT22;9350;53.176;8.194;2022-08-01T11:00:48;20.60;99.90
18444;DHT22;9350;53.176;8.194;2022-08-01T11:03:32;20.70;99.90
18444;DHT22;9350;53.176;8.194;2022-08-01T11:06:01;20.80;99.90
18444;DHT22;9350;53.176;8.194;2022-08-01T11:08:30;20.80;99.90
18444;DHT22;9350;53.176;8.194;2022-08-01T11:11:00;20.80;99.90
18444;DHT22;9350;53.176;8.194;2022-08-01T11:14:02;20.90;99.90
18444;DHT22;9350;53.176;8.194;2022-08-01T11:16:35;20.90;99.90
18444;DHT22;9350;53.176;8.194;2022-08-01T11:19:02;20.90;99.90
18444;DHT22;9350;53.176;8.194;2022-08-01T11:21:58;20.90;99.90
18444;DHT22;9350;53.176;8.194;2022-08-01T11:24:54;20.70;99.90
18444;DHT22;9350;53.176;8.194;2022-08-01T11:27:25;20.70;99.90
18444;DHT22;9350;53.176;8.194;2022-08-01T11:30:23;20.80;99.90
18444;DHT22;9350;53.176;8.194;2022-08-01T11:32:54;20.90;99.90
18444;DHT22;9350;53.176;8.194;2022-08-01T11:35:22;20.90;99.90
18444;DHT22;9350;53.176;8.194;2022-08-01T11:37:50;20.90;99.90
18444;DHT22;9350;53.176;8.194;2022-08-01T11:40:20;20.90;99.90
18444;DHT22;9350;53.176;8.194;2022-08-01T11:42:48;20.90;99.90
18444;DHT22;9350;53.176;8.194;2022-08-01T11:45:14;20.80;99.90
18444;DHT22;9350;53.176;8.194;2022-08-01T11:47:46;20.70;99.90
18444;DHT22;9350;53.176;8.194;2022-08-01T11:50:36;20.70;99.90
18444;DHT22;9350;53.176;8.194;2022-08-01T11:53:05;20.90;99.90
18444;DHT22;9350;53.176;8.194;2022-08-01T11:55:32;20.80;99.90
18444;DHT22;9350;53.176;8.194;2022-08-01T11:58:00;20.80;99.90
18444;DHT22;9350;53.176;8.194;2022-08-01T12:00:28;20.90;99.90
18444;DHT22;9350;53.176;8.194;2022-08-01T12:03:00;20.80;99.90
18444;DHT22;9350;53.176;8.194;2022-08-01T12:05:28;20.80;99.90
18444;DHT22;9350;53.176;8.194;2022-08-01T12:07:57;20.90;99.90
18444;DHT22;9350;53.176;8.194;2022-08-01T12:10:25;21.00;99.90
18444;DHT22;9350;53.176;8.194;2022-08-01T12:12:54;20.90;99.90
18444;DHT22;9350;53.176;8.194;2022-08-01T12:15:22;21.00;99.90
18444;DHT22;9350;53.176;8.194;2022-08-01T12:17:51;21.00;99.90
18444;DHT22;9350;53.176;8.194;2022-08-01T12:20:22;21.00;99.90
18444;DHT22;9350;53.176;8.194;2022-08-01T12:22:53;21.10;99.90
18444;DHT22;9350;53.176;8.194;2022-08-01T12:25:22;21.00;99.90
18444;DHT22;9350;53.176;8.194;2022-08-01T12:27:49;21.10;99.90
18444;DHT22;9350;53.176;8.194;2022-08-01T12:30:17;21.00;99.90
18444;DHT22;9350;53.176;8.194;2022-08-01T12:32:45;21.00;99.90
18444;DHT22;9350;53.176;8.194;2022-08-01T12:35:14;21.00;99.90
18444;DHT22;9350;53.176;8.194;2022-08-01T12:37:43;21.00;99.90
18444;DHT22;9350;53.176;8.194;2022-08-01T12:40:12;21.00;99.90
18444;DHT22;9350;53.176;8.194;2022-08-01T12:42:42;20.90;99.90
18444;DHT22;9350;53.176;8.194;2022-08-01T12:45:11;21.00;99.90
18444;DHT22;9350;53.176;8.194;2022-08-01T12:47:39;21.10;99.90
18444;DHT22;9350;53.176;8.194;2022-08-01T12:50:11;21.00;99.90
18444;DHT22;9350;53.176;8.194;2022-08-01T12:52:39;21.10;99.90
18444;DHT22;9350;53.176;8.194;2022-08-01T12:55:11;21.10;99.90
18444;DHT22;9350;53.176;8.194;2022-08-01T12:57:41;21.10;99.90
18444;DHT22;9350;53.176;8.194;2022-08-01T13:00:18;21.10;99.90
18444;DHT22;9350;53.176;8.194;2022-08-01T13:02:46;21.20;99.90
18444;DHT22;9350;53.176;8.194;2022-08-01T13:05:14;21.20;99.90
18444;DHT22;9350;53.176;8.194;2022-08-01T13:07:44;21.10;99.90
18444;DHT22;9350;53.176;8.194;2022-08-01T13:10:12;21.10;99.90
18444;DHT22;9350;53.176;8.194;2022-08-01T13:12:51;21.10;99.90
18444;DHT22;9350;53.176;8.194;2022-08-01T13:15:20;21.10;99.90
18444;DHT22;9350;53.176;8.194;2022-08-01T13:17:47;21.20;99.90
18444;DHT22;9350;53.176;8.194;2022-08-01T13:20:31;21.30;99.90
18444;DHT22;9350;53.176;8.194;2022-08-01T13:23:11;21.30;99.90
18444;DHT22;9350;53.176;8.194;2022-08-01T13:25:53;21.40;99.90
18444;DHT22;9350;53.176;8.194;2022-08-01T13:28:24;21.40;99.90
18444;DHT22;9350;53.176;8.194;2022-08-01T13:30:52;21.30;99.90
18444;DHT22;9350;53.176;8.194;2022-08-01T13:33:19;21.20;99.90
18444;DHT22;9350;53.176;8.194;2022-08-01T13:35:46;21.10;99.90
18444;DHT22;9350;53.176;8.194;2022-08-01T13:38:13;21.10;99.90
18444;DHT22;9350;53.176;8.194;2022-08-01T13:40:40;21.10;99.90
18444;DHT22;9350;53.176;8.194;2022-08-01T13:43:07;21.10;99.90
18444;DHT22;9350;53.176;8.194;2022-08-01T13:45:35;21.10;99.90
18444;DHT22;9350;53.176;8.194;2022-08-01T13:48:02;21.20;99.90
18444;DHT22;9350;53.176;8.194;2022-08-01T13:50:29;21.20;99.90
18444;DHT22;9350;53.176;8.194;2022-08-01T13:52:56;21.20;99.90
18444;DHT22;9350;53.176;8.194;2022-08-01T13:55:22;21.30;99.90
18444;DHT22;9350;53.176;8.194;2022-08-01T13:57:49;21.20;99.90
18444;DHT22;9350;53.176;8.194;2022-08-01T14:00:16;21.10;99.90
18444;DHT22;9350;53.176;8.194;2022-08-01T14:02:44;21.10;99.90
18444;DHT22;9350;53.176;8.194;2022-08-01T14:05:11;21.10;99.90
18444;DHT22;9350;53.176;8.194;2022-08-01T14:07:38;21.20;99.90
18444;DHT22;9350;53.176;8.194;2022-08-01T14:10:05;21.10;99.90
18444;DHT22;9350;53.176;8.194;2022-08-01T14:12:31;21.10;99.90
18444;DHT22;9350;53.176;8.194;2022-08-01T14:14:58;21.20;99.90
18444;DHT22;9350;53.176;8.194;2022-08-01T14:17:25;21.30;99.90
18444;DHT22;9350;53.176;8.194;2022-08-01T14:19:53;21.30;99.90
18444;DHT22;9350;53.176;8.194;2022-08-01T14:22:21;21.40;99.90
18444;DHT22;9350;53.176;8.194;2022-08-01T14:24:48;21.30;99.90
18444;DHT22;9350;53.176;8.194;2022-08-01T14:27:15;21.30;99.90
18444;DHT22;9350;53.176;8.194;2022-08-01T14:29:41;21.20;99.90
18444;DHT22;9350;53.176;8.194;2022-08-01T14:32:08;21.30;99.90
18444;DHT22;9350;53.176;8.194;2022-08-01T14:34:35;21.40;99.90
18444;DHT22;9350;53.176;8.194;2022-08-01T14:37:03;21.40;99.90
18444;DHT22;9350;53.176;8.194;2022-08-01T14:39:30;21.60;99.90
18444;DHT22;9350;53.176;8.194;2022-08-01T14:41:57;21.60;99.90
18444;DHT22;9350;53.176;8.194;2022-08-01T14:44:24;21.70;99.90
18444;DHT22;9350;53.176;8.194;2022-08-01T14:46:50;21.70;99.90
18444;DHT22;9350;53.176;8.194;2022-08-01T14:49:17;21.70;99.90
18444;DHT22;9350;53.176;8.194;2022-08-01T14:51:44;21.70;99.90
18444;DHT22;9350;53.176;8.194;2022-08-01T14:54:12;21.70;99.90
18444;DHT22;9350;53.176;8.194;2022-08-01T14:56:39;21.70;99.90
18444;DHT22;9350;53.176;8.194;2022-08-01T14:59:06;21.60;99.90
18444;DHT22;9350;53.176;8.194;2022-08-01T15:01:33;21.50;99.90
18444;DHT22;9350;53.176;8.194;2022-08-01T15:03:59;21.50;99.90
18444;DHT22;9350;53.176;8.194;2022-08-01T15:06:26;21.50;99.90
18444;DHT22;9350;53.176;8.194;2022-08-01T15:08:53;21.50;99.90
18444;DHT22;9350;53.176;8.194;2022-08-01T15:11:23;21.50;99.90
18444;DHT22;9350;53.176;8.194;2022-08-01T15:13:49;21.60;99.90
18444;DHT22;9350;53.176;8.194;2022-08-01T15:16:36;21.60;99.90
18444;DHT22;9350;53.176;8.194;2022-08-01T15:19:03;21.60;99.90
18444;DHT22;9350;53.176;8.194;2022-08-01T15:21:30;21.50;99.90
18444;DHT22;9350;53.176;8.194;2022-08-01T15:23:57;21.60;99.90
18444;DHT22;9350;53.176;8.194;2022-08-01T15:26:25;21.50;99.90
18444;DHT22;9350;53.176;8.194;2022-08-01T15:28:52;21.50;99.90
18444;DHT22;9350;53.176;8.194;2022-08-01T15:31:19;21.40;99.90
18444;DHT22;9350;53.176;8.194;2022-08-01T15:33:46;21.30;99.90
18444;DHT22;9350;53.176;8.194;2022-08-01T15:36:12;21.20;99.90
18444;DHT22;9350;53.176;8.194;2022-08-01T15:38:39;21.10;99.90
18444;DHT22;9350;53.176;8.194;2022-08-01T15:41:06;21.20;99.90
18444;DHT22;9350;53.176;8.194;2022-08-01T15:43:34;21.20;99.90
18444;DHT22;9350;53.176;8.194;2022-08-01T15:46:00;21.20;99.90
18444;DHT22;9350;53.176;8.194;2022-08-01T15:48:27;21.10;99.90
18444;DHT22;9350;53.176;8.194;2022-08-01T15:50:54;21.10;99.90
18444;DHT22;9350;53.176;8.194;2022-08-01T15:53:20;21.20;99.90
18444;DHT22;9350;53.176;8.194;2022-08-01T15:55:47;21.20;99.90
18444;DHT22;9350;53.176;8.194;2022-08-01T15:58:14;21.20;99.90
18444;DHT22;9350;53.176;8.194;2022-08-01T16:00:42;21.10;99.90